sensor_id;sensor_type;location;lat;lon;timestamp;temperature;humidity
52941;DHT22;62001;53.366;6.636;2023-04-25T00:01:34;6.90;99.90
52941;DHT22;62001;53.366;6.636;2023-04-25T00:04:02;6.90;99.90
52941;DHT22;62001;53.366;6.636;2023-04-25T00:06:31;6.90;99.90
52941;DHT22;62001;53.366;6.636;2023-04-25T00:08:57;6.90;99.90
52941;DHT22;62001;53.366;6.636;2023-04-25T00:11:24;6.90;99.90
52941;DHT22;62001;53.366;6.636;2023-04-25T00:13:50;6.90;99.90
52941;DHT22;62001;53.366;6.636;2023-04-25T00:16:19;6.90;99.90
52941;DHT22;62001;53.366;6.636;2023-04-25T00:18:45;6.90;99.90
52941;DHT22;62001;53.366;6.636;2023-04-25T00:21:18;6.90;99.90
52941;DHT22;62001;53.366;6.636;2023-04-25T00:23:44;6.80;99.90
52941;DHT22;62001;53.366;6.636;2023-04-25T00:26:11;6.80;99.90
52941;DHT22;62001;53.366;6.636;2023-04-25T00:28:37;6.80;99.90
52941;DHT22;62001;53.366;6.636;2023-04-25T00:31:03;6.80;99.90
52941;DHT22;62001;53.366;6.636;2023-04-25T00:33:29;6.80;99.90
52941;DHT22;62001;53.366;6.636;2023-04-25T00:35:55;6.80;99.90
52941;DHT22;62001;53.366;6.636;2023-04-25T00:38:21;6.80;99.90
52941;DHT22;62001;53.366;6.636;2023-04-25T00:40:47;6.70;99.90
52941;DHT22;62001;53.366;6.636;2023-04-25T00:43:13;6.70;99.90
52941;DHT22;62001;53.366;6.636;2023-04-25T00:45:39;6.60;99.90
52941;DHT22;62001;53.366;6.636;2023-04-25T00:48:06;6.60;99.90
52941;DHT22;62001;53.366;6.636;2023-04-25T00:50:33;6.60;99.90
52941;DHT22;62001;53.366;6.636;2023-04-25T00:53:00;6.60;99.90
52941;DHT22;62001;53.366;6.636;2023-04-25T00:55:26;6.50;99.90
52941;DHT22;62001;53.366;6.636;2023-04-25T00:57:52;6.50;99.90
52941;DHT22;62001;53.366;6.636;2023-04-25T01:00:19;6.50;99.90
52941;DHT22;62001;53.366;6.636;2023-04-25T01:02:45;6.50;99.90
52941;DHT22;62001;53.366;6.636;2023-04-25T01:05:12;6.50;99.90
52941;DHT22;62001;53.366;6.636;2023-04-25T01:07:38;6.40;99.90
52941;DHT22;62001;53.366;6.636;2023-04-25T01:10:05;6.40;99.90
52941;DHT22;62001;53.366;6.636;2023-04-25T01:12:31;6.30;99.90
52941;DHT22;62001;53.366;6.636;2023-04-25T01:14:57;6.20;99.90
52941;DHT22;62001;53.366;6.636;2023-04-25T01:17:24;6.10;99.90
52941;DHT22;62001;53.366;6.636;2023-04-25T01:19:50;6.10;99.90
52941;DHT22;62001;53.366;6.636;2023-04-25T01:22:16;6.10;99.90
52941;DHT22;62001;53.366;6.636;2023-04-25T01:24:42;6.10;99.90
52941;DHT22;62001;53.366;6.636;2023-04-25T01:27:09;6.20;99.90
52941;DHT22;62001;53.366;6.636;2023-04-25T01:29:35;6.20;99.90
52941;DHT22;62001;53.366;6.636;2023-04-25T01:32:01;6.20;99.90
52941;DHT22;62001;53.366;6.636;2023-04-25T01:34:27;6.20;99.90
52941;DHT22;62001;53.366;6.636;2023-04-25T01:36:53;6.20;99.90
52941;DHT22;62001;53.366;6.636;2023-04-25T01:39:19;6.20;99.90
52941;DHT22;62001;53.366;6.636;2023-04-25T01:41:48;6.30;99.90
52941;DHT22;62001;53.366;6.636;2023-04-25T01:44:14;6.30;99.90
52941;DHT22;62001;53.366;6.636;2023-04-25T01:46:41;6.30;99.90
52941;DHT22;62001;53.366;6.636;2023-04-25T01:49:07;6.20;99.90
52941;DHT22;62001;53.366;6.636;2023-04-25T01:51:33;6.20;99.90
52941;DHT22;62001;53.366;6.636;2023-04-25T01:53:59;6.10;99.90
52941;DHT22;62001;53.366;6.636;2023-04-25T01:56:30;6.00;99.90
52941;DHT22;62001;53.366;6.636;2023-04-25T01:58:56;5.90;99.90
52941;DHT22;62001;53.366;6.636;2023-04-25T02:01:22;5.80;99.90
52941;DHT22;62001;53.366;6.636;2023-04-25T02:03:48;5.90;99.90
52941;DHT22;62001;53.366;6.636;2023-04-25T02:06:14;5.90;99.90
52941;DHT22;62001;53.366;6.636;2023-04-25T02:08:40;6.00;99.90
52941;DHT22;62001;53.366;6.636;2023-04-25T02:11:06;5.90;99.90
52941;DHT22;62001;53.366;6.636;2023-04-25T02:13:31;6.00;99.90
52941;DHT22;62001;53.366;6.636;2023-04-25T02:15:57;6.00;99.90
52941;DHT22;62001;53.366;6.636;2023-04-25T02:18:23;6.00;99.90
52941;DHT22;62001;53.366;6.636;2023-04-25T02:20:49;6.00;99.90
52941;DHT22;62001;53.366;6.636;2023-04-25T02:23:15;6.00;99.90
52941;DHT22;62001;53.366;6.636;2023-04-25T02:25:41;6.00;99.90
52941;DHT22;62001;53.366;6.636;2023-04-25T02:28:07;5.90;99.90
52941;DHT22;62001;53.366;6.636;2023-04-25T02:30:33;5.70;99.90
52941;DHT22;62001;53.366;6.636;2023-04-25T02:32:59;5.50;99.90
52941;DHT22;62001;53.366;6.636;2023-04-25T02:35:25;5.40;99.90
52941;DHT22;62001;53.366;6.636;2023-04-25T02:37:51;5.30;99.90
52941;DHT22;62001;53.366;6.636;2023-04-25T02:40:17;5.30;99.90
52941;DHT22;62001;53.366;6.636;2023-04-25T02:42:43;5.20;99.90
52941;DHT22;62001;53.366;6.636;2023-04-25T02:45:11;5.30;99.90
52941;DHT22;62001;53.366;6.636;2023-04-25T02:47:37;5.30;99.90
52941;DHT22;62001;53.366;6.636;2023-04-25T02:50:03;5.40;99.90
52941;DHT22;62001;53.366;6.636;2023-04-25T02:52:29;5.40;99.90
52941;DHT22;62001;53.366;6.636;2023-04-25T02:54:55;5.50;99.90
52941;DHT22;62001;53.366;6.636;2023-04-25T02:57:22;5.60;99.90
52941;DHT22;62001;53.366;6.636;2023-04-25T02:59:47;5.70;99.90
52941;DHT22;62001;53.366;6.636;2023-04-25T03:02:13;5.80;99.90
52941;DHT22;62001;53.366;6.636;2023-04-25T03:04:39;5.70;99.90
52941;DHT22;62001;53.366;6.636;2023-04-25T03:07:05;5.60;99.90
52941;DHT22;62001;53.366;6.636;2023-04-25T03:09:31;5.50;99.90
52941;DHT22;62001;53.366;6.636;2023-04-25T03:11:57;5.40;99.90
52941;DHT22;62001;53.366;6.636;2023-04-25T03:14:22;5.30;99.90
52941;DHT22;62001;53.366;6.636;2023-04-25T03:16:48;5.30;99.90
52941;DHT22;62001;53.366;6.636;2023-04-25T03:19:14;5.20;99.90
52941;DHT22;62001;53.366;6.636;2023-04-25T03:21:42;5.20;99.90
52941;DHT22;62001;53.366;6.636;2023-04-25T03:24:08;5.10;99.90
52941;DHT22;62001;53.366;6.636;2023-04-25T03:26:36;5.10;99.90
52941;DHT22;62001;53.366;6.636;2023-04-25T03:29:02;5.00;99.90
52941;DHT22;62001;53.366;6.636;2023-04-25T03:31:28;5.00;99.90
52941;DHT22;62001;53.366;6.636;2023-04-25T03:33:54;5.10;99.90
52941;DHT22;62001;53.366;6.636;2023-04-25T03:36:20;5.10;99.90
52941;DHT22;62001;53.366;6.636;2023-04-25T03:38:45;5.20;99.90
52941;DHT22;62001;53.366;6.636;2023-04-25T03:41:11;5.30;99.90
52941;DHT22;62001;53.366;6.636;2023-04-25T03:43:37;5.30;99.90
52941;DHT22;62001;53.366;6.636;2023-04-25T03:46:03;5.40;99.90
52941;DHT22;62001;53.366;6.636;2023-04-25T03:48:29;5.30;99.90
52941;DHT22;62001;53.366;6.636;2023-04-25T03:50:55;5.20;99.90
52941;DHT22;62001;53.366;6.636;2023-04-25T03:53:21;5.20;99.90
52941;DHT22;62001;53.366;6.636;2023-04-25T03:55:47;5.20;99.90
52941;DHT22;62001;53.366;6.636;2023-04-25T03:58:13;5.10;99.90
52941;DHT22;62001;53.366;6.636;2023-04-25T04:00:38;5.00;99.90
52941;DHT22;62001;53.366;6.636;2023-04-25T04:03:04;5.00;99.90
52941;DHT22;62001;53.366;6.636;2023-04-25T04:05:30;4.90;99.90
52941;DHT22;62001;53.366;6.636;2023-04-25T04:07:56;4.80;99.90
52941;DHT22;62001;53.366;6.636;2023-04-25T04:10:22;4.70;99.90
52941;DHT22;62001;53.366;6.636;2023-04-25T04:12:48;4.70;99.90
52941;DHT22;62001;53.366;6.636;2023-04-25T04:15:14;4.60;99.90
52941;DHT22;62001;53.366;6.636;2023-04-25T04:17:40;4.60;99.90
52941;DHT22;62001;53.366;6.636;2023-04-25T04:20:07;4.70;99.90
52941;DHT22;62001;53.366;6.636;2023-04-25T04:22:33;4.70;99.90
52941;DHT22;62001;53.366;6.636;2023-04-25T04:24:59;4.90;99.90
52941;DHT22;62001;53.366;6.636;2023-04-25T04:27:25;4.90;99.90
52941;DHT22;62001;53.366;6.636;2023-04-25T04:29:51;4.90;99.90
52941;DHT22;62001;53.366;6.636;2023-04-25T04:32:18;5.00;99.90
52941;DHT22;62001;53.366;6.636;2023-04-25T04:34:44;5.00;99.90
52941;DHT22;62001;53.366;6.636;2023-04-25T04:37:12;5.00;99.90
52941;DHT22;62001;53.366;6.636;2023-04-25T04:39:38;5.10;99.90
52941;DHT22;62001;53.366;6.636;2023-04-25T04:42:04;5.20;99.90
52941;DHT22;62001;53.366;6.636;2023-04-25T04:44:30;5.20;99.90
52941;DHT22;62001;53.366;6.636;2023-04-25T04:47:00;5.30;99.90
52941;DHT22;62001;53.366;6.636;2023-04-25T04:49:25;5.40;99.90
52941;DHT22;62001;53.366;6.636;2023-04-25T04:51:51;5.40;99.90
52941;DHT22;62001;53.366;6.636;2023-04-25T04:54:18;5.50;99.90
52941;DHT22;62001;53.366;6.636;2023-04-25T04:56:43;5.60;99.90
52941;DHT22;62001;53.366;6.636;2023-04-25T04:59:09;5.60;99.90
52941;DHT22;62001;53.366;6.636;2023-04-25T05:01:36;5.50;99.90
52941;DHT22;62001;53.366;6.636;2023-04-25T05:04:02;5.30;99.90
52941;DHT22;62001;53.366;6.636;2023-04-25T05:06:29;5.10;99.90
52941;DHT22;62001;53.366;6.636;2023-04-25T05:08:56;5.10;99.90
52941;DHT22;62001;53.366;6.636;2023-04-25T05:11:25;5.00;99.90
52941;DHT22;62001;53.366;6.636;2023-04-25T05:13:52;5.10;99.90
52941;DHT22;62001;53.366;6.636;2023-04-25T05:16:18;5.10;99.90
52941;DHT22;62001;53.366;6.636;2023-04-25T05:18:44;5.10;99.90
52941;DHT22;62001;53.366;6.636;2023-04-25T05:21:10;5.10;99.90
52941;DHT22;62001;53.366;6.636;2023-04-25T05:23:36;5.10;99.90
52941;DHT22;62001;53.366;6.636;2023-04-25T05:26:02;5.20;99.90
52941;DHT22;62001;53.366;6.636;2023-04-25T05:28:28;5.10;99.90
52941;DHT22;62001;53.366;6.636;2023-04-25T05:30:53;5.20;99.90
52941;DHT22;62001;53.366;6.636;2023-04-25T05:33:19;5.30;99.90
52941;DHT22;62001;53.366;6.636;2023-04-25T05:35:45;5.50;99.90
52941;DHT22;62001;53.366;6.636;2023-04-25T05:38:11;5.70;99.90
52941;DHT22;62001;53.366;6.636;2023-04-25T05:40:37;5.80;99.90
52941;DHT22;62001;53.366;6.636;2023-04-25T05:43:03;6.00;99.90
52941;DHT22;62001;53.366;6.636;2023-04-25T05:45:29;6.50;99.90
52941;DHT22;62001;53.366;6.636;2023-04-25T05:47:55;7.20;99.90
52941;DHT22;62001;53.366;6.636;2023-04-25T05:50:21;7.50;99.90
52941;DHT22;62001;53.366;6.636;2023-04-25T05:52:47;7.60;99.90
52941;DHT22;62001;53.366;6.636;2023-04-25T05:55:12;7.60;99.90
52941;DHT22;62001;53.366;6.636;2023-04-25T05:57:39;7.50;99.90
52941;DHT22;62001;53.366;6.636;2023-04-25T06:00:08;7.40;99.90
52941;DHT22;62001;53.366;6.636;2023-04-25T06:02:35;7.40;99.90
52941;DHT22;62001;53.366;6.636;2023-04-25T06:05:04;7.50;99.90
52941;DHT22;62001;53.366;6.636;2023-04-25T06:07:30;7.40;99.90
52941;DHT22;62001;53.366;6.636;2023-04-25T06:09:56;7.40;99.90
52941;DHT22;62001;53.366;6.636;2023-04-25T06:12:22;7.30;99.90
52941;DHT22;62001;53.366;6.636;2023-04-25T06:14:48;7.20;99.90
52941;DHT22;62001;53.366;6.636;2023-04-25T06:17:14;7.20;99.90
52941;DHT22;62001;53.366;6.636;2023-04-25T06:19:40;7.80;99.90
52941;DHT22;62001;53.366;6.636;2023-04-25T06:22:07;8.40;99.90
52941;DHT22;62001;53.366;6.636;2023-04-25T06:24:34;9.20;99.90
52941;DHT22;62001;53.366;6.636;2023-04-25T06:27:00;10.00;99.90
52941;DHT22;62001;53.366;6.636;2023-04-25T06:29:26;10.90;99.90
52941;DHT22;62001;53.366;6.636;2023-04-25T06:31:52;11.40;99.90
52941;DHT22;62001;53.366;6.636;2023-04-25T06:34:17;11.60;99.90
52941;DHT22;62001;53.366;6.636;2023-04-25T06:36:43;11.60;99.90
52941;DHT22;62001;53.366;6.636;2023-04-25T06:39:10;11.10;99.90
52941;DHT22;62001;53.366;6.636;2023-04-25T06:41:36;10.30;99.90
52941;DHT22;62001;53.366;6.636;2023-04-25T06:44:02;9.50;99.90
52941;DHT22;62001;53.366;6.636;2023-04-25T06:46:28;8.80;99.90
52941;DHT22;62001;53.366;6.636;2023-04-25T06:48:54;8.00;99.90
52941;DHT22;62001;53.366;6.636;2023-04-25T06:51:20;7.30;99.90
52941;DHT22;62001;53.366;6.636;2023-04-25T06:53:46;6.90;99.90
52941;DHT22;62001;53.366;6.636;2023-04-25T06:56:12;6.80;99.90
52941;DHT22;62001;53.366;6.636;2023-04-25T06:58:38;6.80;99.90
52941;DHT22;62001;53.366;6.636;2023-04-25T07:01:04;7.00;99.90
52941;DHT22;62001;53.366;6.636;2023-04-25T07:03:30;7.30;99.90
52941;DHT22;62001;53.366;6.636;2023-04-25T07:05:56;7.80;99.90
52941;DHT22;62001;53.366;6.636;2023-04-25T07:08:21;8.40;99.90
52941;DHT22;62001;53.366;6.636;2023-04-25T07:10:47;9.80;99.90
52941;DHT22;62001;53.366;6.636;2023-04-25T07:13:13;11.20;99.90
52941;DHT22;62001;53.366;6.636;2023-04-25T07:15:39;12.00;99.90
52941;DHT22;62001;53.366;6.636;2023-04-25T07:18:05;12.50;99.90
52941;DHT22;62001;53.366;6.636;2023-04-25T07:20:31;13.30;99.90
52941;DHT22;62001;53.366;6.636;2023-04-25T07:22:58;13.20;99.90
52941;DHT22;62001;53.366;6.636;2023-04-25T07:25:24;12.80;99.90
52941;DHT22;62001;53.366;6.636;2023-04-25T07:27:50;12.50;99.90
52941;DHT22;62001;53.366;6.636;2023-04-25T07:30:16;12.60;99.90
52941;DHT22;62001;53.366;6.636;2023-04-25T07:32:41;13.20;99.90
52941;DHT22;62001;53.366;6.636;2023-04-25T07:35:07;14.30;99.90
52941;DHT22;62001;53.366;6.636;2023-04-25T07:37:35;14.70;99.90
52941;DHT22;62001;53.366;6.636;2023-04-25T07:40:02;14.10;99.90
52941;DHT22;62001;53.366;6.636;2023-04-25T07:42:30;13.10;98.70
52941;DHT22;62001;53.366;6.636;2023-04-25T07:44:56;12.00;99.50
52941;DHT22;62001;53.366;6.636;2023-04-25T07:47:22;11.90;99.90
52941;DHT22;62001;53.366;6.636;2023-04-25T07:49:47;12.90;99.90
52941;DHT22;62001;53.366;6.636;2023-04-25T07:52:13;14.10;99.90
52941;DHT22;62001;53.366;6.636;2023-04-25T07:54:39;14.90;99.90
52941;DHT22;62001;53.366;6.636;2023-04-25T07:57:05;15.70;98.00
52941;DHT22;62001;53.366;6.636;2023-04-25T07:59:34;16.20;97.50
52941;DHT22;62001;53.366;6.636;2023-04-25T08:02:00;16.00;96.60
52941;DHT22;62001;53.366;6.636;2023-04-25T08:04:26;15.30;97.10
52941;DHT22;62001;53.366;6.636;2023-04-25T08:06:52;14.40;97.80
52941;DHT22;62001;53.366;6.636;2023-04-25T08:09:19;13.50;99.90
52941;DHT22;62001;53.366;6.636;2023-04-25T08:11:45;12.60;99.90
52941;DHT22;62001;53.366;6.636;2023-04-25T08:14:12;12.40;99.90
52941;DHT22;62001;53.366;6.636;2023-04-25T08:16:39;12.70;99.90
52941;DHT22;62001;53.366;6.636;2023-04-25T08:19:05;13.50;99.90
52941;DHT22;62001;53.366;6.636;2023-04-25T08:21:31;14.30;99.90
52941;DHT22;62001;53.366;6.636;2023-04-25T08:23:57;15.00;99.90
52941;DHT22;62001;53.366;6.636;2023-04-25T08:26:24;15.40;99.90
52941;DHT22;62001;53.366;6.636;2023-04-25T08:28:50;15.30;99.60
52941;DHT22;62001;53.366;6.636;2023-04-25T08:31:16;14.80;99.50
52941;DHT22;62001;53.366;6.636;2023-04-25T08:33:42;14.70;99.90
52941;DHT22;62001;53.366;6.636;2023-04-25T08:36:08;14.80;99.90
52941;DHT22;62001;53.366;6.636;2023-04-25T08:38:34;15.10;98.20
52941;DHT22;62001;53.366;6.636;2023-04-25T08:41:00;15.10;95.30
52941;DHT22;62001;53.366;6.636;2023-04-25T08:43:29;15.20;94.10
52941;DHT22;62001;53.366;6.636;2023-04-25T08:46:00;15.50;93.20
52941;DHT22;62001;53.366;6.636;2023-04-25T08:48:32;15.80;90.20
52941;DHT22;62001;53.366;6.636;2023-04-25T08:50:58;15.00;89.10
52941;DHT22;62001;53.366;6.636;2023-04-25T08:53:31;14.20;90.80
52941;DHT22;62001;53.366;6.636;2023-04-25T08:55:59;13.70;90.10
52941;DHT22;62001;53.366;6.636;2023-04-25T08:58:25;13.60;92.70
52941;DHT22;62001;53.366;6.636;2023-04-25T09:00:52;13.90;92.40
52941;DHT22;62001;53.366;6.636;2023-04-25T09:03:18;13.80;91.90
52941;DHT22;62001;53.366;6.636;2023-04-25T09:05:44;13.60;92.60
52941;DHT22;62001;53.366;6.636;2023-04-25T09:08:10;13.40;92.80
52941;DHT22;62001;53.366;6.636;2023-04-25T09:10:37;13.00;92.50
52941;DHT22;62001;53.366;6.636;2023-04-25T09:13:11;12.70;93.50
52941;DHT22;62001;53.366;6.636;2023-04-25T09:15:51;12.70;95.00
52941;DHT22;62001;53.366;6.636;2023-04-25T09:18:25;12.30;94.50
52941;DHT22;62001;53.366;6.636;2023-04-25T09:20:56;11.70;94.60
52941;DHT22;62001;53.366;6.636;2023-04-25T09:23:24;11.10;96.80
52941;DHT22;62001;53.366;6.636;2023-04-25T09:25:53;10.70;99.40
52941;DHT22;62001;53.366;6.636;2023-04-25T09:28:26;10.50;99.90
52941;DHT22;62001;53.366;6.636;2023-04-25T09:30:56;10.60;99.90
52941;DHT22;62001;53.366;6.636;2023-04-25T09:33:29;11.10;99.90
52941;DHT22;62001;53.366;6.636;2023-04-25T09:36:05;11.50;99.90
52941;DHT22;62001;53.366;6.636;2023-04-25T09:38:32;12.20;99.90
52941;DHT22;62001;53.366;6.636;2023-04-25T09:40:58;12.70;96.70
52941;DHT22;62001;53.366;6.636;2023-04-25T09:43:25;13.10;93.10
52941;DHT22;62001;53.366;6.636;2023-04-25T09:45:53;13.70;91.40
52941;DHT22;62001;53.366;6.636;2023-04-25T09:48:22;14.50;90.80
52941;DHT22;62001;53.366;6.636;2023-04-25T09:51:04;15.00;90.10
52941;DHT22;62001;53.366;6.636;2023-04-25T09:53:38;14.60;87.10
52941;DHT22;62001;53.366;6.636;2023-04-25T09:56:06;14.40;90.20
52941;DHT22;62001;53.366;6.636;2023-04-25T09:58:34;14.60;90.40
52941;DHT22;62001;53.366;6.636;2023-04-25T10:01:02;14.30;90.60
52941;DHT22;62001;53.366;6.636;2023-04-25T10:03:32;13.80;91.90
52941;DHT22;62001;53.366;6.636;2023-04-25T10:06:11;13.00;93.20
52941;DHT22;62001;53.366;6.636;2023-04-25T10:08:38;12.40;96.60
52941;DHT22;62001;53.366;6.636;2023-04-25T10:11:06;11.90;99.30
52941;DHT22;62001;53.366;6.636;2023-04-25T10:13:33;11.80;99.90
52941;DHT22;62001;53.366;6.636;2023-04-25T10:16:03;11.80;99.90
52941;DHT22;62001;53.366;6.636;2023-04-25T10:18:30;11.90;99.90
52941;DHT22;62001;53.366;6.636;2023-04-25T10:21:00;11.90;99.90
52941;DHT22;62001;53.366;6.636;2023-04-25T10:23:26;12.00;99.90
52941;DHT22;62001;53.366;6.636;2023-04-25T10:25:53;12.20;99.90
52941;DHT22;62001;53.366;6.636;2023-04-25T10:28:20;12.60;99.90
52941;DHT22;62001;53.366;6.636;2023-04-25T10:31:03;12.90;98.20
52941;DHT22;62001;53.366;6.636;2023-04-25T10:33:39;12.80;95.70
52941;DHT22;62001;53.366;6.636;2023-04-25T10:36:23;12.50;95.30
52941;DHT22;62001;53.366;6.636;2023-04-25T10:38:51;12.30;98.10
52941;DHT22;62001;53.366;6.636;2023-04-25T10:41:21;12.20;99.60
52941;DHT22;62001;53.366;6.636;2023-04-25T10:43:49;12.30;99.90
52941;DHT22;62001;53.366;6.636;2023-04-25T10:46:30;12.30;99.90
52941;DHT22;62001;53.366;6.636;2023-04-25T10:49:01;12.40;99.90
52941;DHT22;62001;53.366;6.636;2023-04-25T10:56:29;12.60;97.80
52941;DHT22;62001;53.366;6.636;2023-04-25T10:59:14;12.70;97.40
52941;DHT22;62001;53.366;6.636;2023-04-25T11:01:42;12.90;97.40
52941;DHT22;62001;53.366;6.636;2023-04-25T11:04:31;12.90;97.60
52941;DHT22;62001;53.366;6.636;2023-04-25T11:09:39;12.90;98.20
52941;DHT22;62001;53.366;6.636;2023-04-25T11:12:07;12.80;98.10
52941;DHT22;62001;53.366;6.636;2023-04-25T11:14:34;12.50;98.40
52941;DHT22;62001;53.366;6.636;2023-04-25T11:17:00;12.50;99.30
52941;DHT22;62001;53.366;6.636;2023-04-25T11:19:30;12.50;99.90
52941;DHT22;62001;53.366;6.636;2023-04-25T11:21:58;12.70;99.90
52941;DHT22;62001;53.366;6.636;2023-04-25T11:24:30;12.80;99.90
52941;DHT22;62001;53.366;6.636;2023-04-25T11:26:58;12.90;99.90
52941;DHT22;62001;53.366;6.636;2023-04-25T11:29:27;12.90;99.90
52941;DHT22;62001;53.366;6.636;2023-04-25T11:31:54;12.90;99.60
52941;DHT22;62001;53.366;6.636;2023-04-25T11:34:24;13.00;99.90
52941;DHT22;62001;53.366;6.636;2023-04-25T11:36:51;12.90;98.70
52941;DHT22;62001;53.366;6.636;2023-04-25T11:39:19;12.70;99.50
52941;DHT22;62001;53.366;6.636;2023-04-25T11:41:46;12.40;98.90
52941;DHT22;62001;53.366;6.636;2023-04-25T11:44:16;12.10;99.10
52941;DHT22;62001;53.366;6.636;2023-04-25T11:46:43;12.10;99.30
52941;DHT22;62001;53.366;6.636;2023-04-25T11:49:09;12.10;99.70
52941;DHT22;62001;53.366;6.636;2023-04-25T11:51:42;12.10;99.90
52941;DHT22;62001;53.366;6.636;2023-04-25T11:54:09;11.90;99.90
52941;DHT22;62001;53.366;6.636;2023-04-25T11:56:35;11.60;99.60
52941;DHT22;62001;53.366;6.636;2023-04-25T11:59:05;11.20;99.90
52941;DHT22;62001;53.366;6.636;2023-04-25T12:01:33;11.00;99.90
52941;DHT22;62001;53.366;6.636;2023-04-25T12:04:11;10.80;99.90
52941;DHT22;62001;53.366;6.636;2023-04-25T12:06:38;10.80;99.90
52941;DHT22;62001;53.366;6.636;2023-04-25T12:09:08;10.90;99.90
52941;DHT22;62001;53.366;6.636;2023-04-25T12:11:42;11.30;99.90
52941;DHT22;62001;53.366;6.636;2023-04-25T12:14:11;11.50;99.90
52941;DHT22;62001;53.366;6.636;2023-04-25T12:16:45;11.70;99.90
52941;DHT22;62001;53.366;6.636;2023-04-25T12:19:14;11.80;99.30
52941;DHT22;62001;53.366;6.636;2023-04-25T12:21:41;11.70;98.90
52941;DHT22;62001;53.366;6.636;2023-04-25T12:24:24;11.60;99.30
52941;DHT22;62001;53.366;6.636;2023-04-25T12:29:23;11.90;99.90
52941;DHT22;62001;53.366;6.636;2023-04-25T12:31:51;11.90;99.50
52941;DHT22;62001;53.366;6.636;2023-04-25T12:34:18;11.90;99.50
52941;DHT22;62001;53.366;6.636;2023-04-25T12:36:44;11.80;99.70
52941;DHT22;62001;53.366;6.636;2023-04-25T12:41:42;11.60;99.90
52941;DHT22;62001;53.366;6.636;2023-04-25T12:44:08;11.60;99.90
52941;DHT22;62001;53.366;6.636;2023-04-25T12:46:33;11.60;99.90
52941;DHT22;62001;53.366;6.636;2023-04-25T12:48:59;11.70;99.90
52941;DHT22;62001;53.366;6.636;2023-04-25T12:51:25;11.30;99.90
52941;DHT22;62001;53.366;6.636;2023-04-25T12:53:53;10.80;99.90
52941;DHT22;62001;53.366;6.636;2023-04-25T12:56:19;10.80;99.90
52941;DHT22;62001;53.366;6.636;2023-04-25T12:58:45;10.70;99.90
52941;DHT22;62001;53.366;6.636;2023-04-25T13:01:12;10.60;99.90
52941;DHT22;62001;53.366;6.636;2023-04-25T13:03:39;10.40;99.90
52941;DHT22;62001;53.366;6.636;2023-04-25T13:06:06;10.20;99.90
52941;DHT22;62001;53.366;6.636;2023-04-25T13:08:32;10.00;99.90
52941;DHT22;62001;53.366;6.636;2023-04-25T13:10:58;9.80;99.90
52941;DHT22;62001;53.366;6.636;2023-04-25T13:13:24;9.80;99.90
52941;DHT22;62001;53.366;6.636;2023-04-25T13:15:52;9.90;99.90
52941;DHT22;62001;53.366;6.636;2023-04-25T13:18:19;10.10;99.90
52941;DHT22;62001;53.366;6.636;2023-04-25T13:20:44;10.40;99.90
52941;DHT22;62001;53.366;6.636;2023-04-25T13:23:11;10.60;99.90
52941;DHT22;62001;53.366;6.636;2023-04-25T13:25:37;10.80;99.90
52941;DHT22;62001;53.366;6.636;2023-04-25T13:28:03;11.00;99.90
52941;DHT22;62001;53.366;6.636;2023-04-25T13:30:30;11.10;99.90
52941;DHT22;62001;53.366;6.636;2023-04-25T13:32:56;11.10;99.90
52941;DHT22;62001;53.366;6.636;2023-04-25T13:35:25;11.10;99.90
52941;DHT22;62001;53.366;6.636;2023-04-25T13:37:51;11.10;99.90
52941;DHT22;62001;53.366;6.636;2023-04-25T13:40:17;11.10;99.90
52941;DHT22;62001;53.366;6.636;2023-04-25T13:42:42;11.10;99.90
52941;DHT22;62001;53.366;6.636;2023-04-25T13:45:11;11.10;99.90
52941;DHT22;62001;53.366;6.636;2023-04-25T13:47:36;11.10;99.90
52941;DHT22;62001;53.366;6.636;2023-04-25T13:50:03;11.00;99.90
52941;DHT22;62001;53.366;6.636;2023-04-25T13:52:31;10.90;99.90
52941;DHT22;62001;53.366;6.636;2023-04-25T13:54:57;10.90;99.90
52941;DHT22;62001;53.366;6.636;2023-04-25T13:57:23;10.90;99.90
52941;DHT22;62001;53.366;6.636;2023-04-25T13:59:50;10.70;99.90
52941;DHT22;62001;53.366;6.636;2023-04-25T14:02:17;10.70;99.90
52941;DHT22;62001;53.366;6.636;2023-04-25T14:04:43;10.50;99.90
52941;DHT22;62001;53.366;6.636;2023-04-25T14:07:09;10.50;99.90
52941;DHT22;62001;53.366;6.636;2023-04-25T14:09:36;10.50;99.90
52941;DHT22;62001;53.366;6.636;2023-04-25T14:12:02;10.50;99.90
52941;DHT22;62001;53.366;6.636;2023-04-25T14:14:28;10.50;99.90
52941;DHT22;62001;53.366;6.636;2023-04-25T14:16:54;10.40;99.90
52941;DHT22;62001;53.366;6.636;2023-04-25T14:19:21;10.50;99.90
52941;DHT22;62001;53.366;6.636;2023-04-25T14:21:46;10.60;99.90
52941;DHT22;62001;53.366;6.636;2023-04-25T14:24:13;10.60;99.90
52941;DHT22;62001;53.366;6.636;2023-04-25T14:26:39;10.60;99.90
52941;DHT22;62001;53.366;6.636;2023-04-25T14:29:07;10.60;99.90
52941;DHT22;62001;53.366;6.636;2023-04-25T14:31:34;10.60;99.90
52941;DHT22;62001;53.366;6.636;2023-04-25T14:34:01;10.60;99.90
52941;DHT22;62001;53.366;6.636;2023-04-25T14:36:30;10.40;99.90
52941;DHT22;62001;53.366;6.636;2023-04-25T14:38:56;10.10;99.90
52941;DHT22;62001;53.366;6.636;2023-04-25T14:41:23;9.90;99.90
52941;DHT22;62001;53.366;6.636;2023-04-25T14:43:48;9.80;99.90
52941;DHT22;62001;53.366;6.636;2023-04-25T14:46:14;9.80;99.90
52941;DHT22;62001;53.366;6.636;2023-04-25T14:48:40;9.90;99.90
52941;DHT22;62001;53.366;6.636;2023-04-25T14:51:06;9.80;99.90
52941;DHT22;62001;53.366;6.636;2023-04-25T14:53:32;9.90;99.90
52941;DHT22;62001;53.366;6.636;2023-04-25T14:55:58;10.00;99.90
52941;DHT22;62001;53.366;6.636;2023-04-25T14:58:24;10.10;99.90
52941;DHT22;62001;53.366;6.636;2023-04-25T15:00:50;10.00;99.90
52941;DHT22;62001;53.366;6.636;2023-04-25T15:03:16;10.10;99.90
52941;DHT22;62001;53.366;6.636;2023-04-25T15:05:43;10.30;99.90
52941;DHT22;62001;53.366;6.636;2023-04-25T15:08:09;10.50;99.90
52941;DHT22;62001;53.366;6.636;2023-04-25T15:10:36;10.60;99.90
52941;DHT22;62001;53.366;6.636;2023-04-25T15:13:03;10.70;99.90
52941;DHT22;62001;53.366;6.636;2023-04-25T15:15:29;10.50;99.90
52941;DHT22;62001;53.366;6.636;2023-04-25T15:17:55;10.30;99.90
52941;DHT22;62001;53.366;6.636;2023-04-25T15:20:22;10.20;99.90
52941;DHT22;62001;53.366;6.636;2023-04-25T15:22:48;9.90;99.90
52941;DHT22;62001;53.366;6.636;2023-04-25T15:25:15;9.70;99.90
52941;DHT22;62001;53.366;6.636;2023-04-25T15:27:43;9.60;99.90
52941;DHT22;62001;53.366;6.636;2023-04-25T15:30:10;9.60;99.90
52941;DHT22;62001;53.366;6.636;2023-04-25T15:32:38;9.60;99.90
52941;DHT22;62001;53.366;6.636;2023-04-25T15:35:05;9.60;99.90
52941;DHT22;62001;53.366;6.636;2023-04-25T15:37:32;9.60;99.90
52941;DHT22;62001;53.366;6.636;2023-04-25T15:40:03;9.60;99.90
52941;DHT22;62001;53.366;6.636;2023-04-25T15:42:35;9.60;99.90
52941;DHT22;62001;53.366;6.636;2023-04-25T15:45:03;9.90;99.90
52941;DHT22;62001;53.366;6.636;2023-04-25T15:47:29;10.00;99.90
52941;DHT22;62001;53.366;6.636;2023-04-25T15:49:54;10.10;99.90